Weather at Hoskins Field

Public forecast

Using degrees Fahrenheit for public forecast. Weather courtesy of forecast.io.

Closest aviation weather report (METAR) to Hoskins Field

Closest report is Olympia Regional Airport, 3.4 nm (6.2 km) WSW.

2024/07/20 05:54 (retrieved 50 minutes ago)

KOLM 200554Z 00000KT 10SM CLR 18/14 A3014 RMK AO2 SLP206 T01830139 10311 20183 53009

Closest aviation forecast (TAF) to Hoskins Field

Closest forecast is Olympia Regional Airport, 3.4 nm (6.2 km) WSW.

2024/07/20 06:24 (retrieved 20 minutes ago)

TAF KOLM 200522Z 2006/2106 00000KT P6SM SKC FM201400 VRB02KT P6SM FEW006 FM201800 02006KT P6SM SKC